createdAt,value
2022-09-23T00:00:05.527Z,5.44
2022-09-23T00:03:06.861Z,5.42
2022-09-23T00:06:10.655Z,5.53
2022-09-23T00:09:12.059Z,5.53
2022-09-23T00:12:13.399Z,5.42
2022-09-23T00:15:14.772Z,5.45
2022-09-23T00:18:16.213Z,5.51
2022-09-23T00:21:17.645Z,5.59
2022-09-23T00:24:20.790Z,5.49
2022-09-23T00:27:22.183Z,5.47
2022-09-23T00:30:23.683Z,5.38
2022-09-23T00:33:25.118Z,5.33
2022-09-23T00:36:26.638Z,5.35
2022-09-23T00:39:28.001Z,5.36
2022-09-23T00:42:29.334Z,5.35
2022-09-23T00:45:31.135Z,5.37
2022-09-23T00:48:32.459Z,5.34
2022-09-23T00:51:38.647Z,5.37
2022-09-23T00:54:40.071Z,5.23
2022-09-23T00:57:41.404Z,5.17
2022-09-23T01:00:42.789Z,5.13
2022-09-23T01:03:44.613Z,5.12
2022-09-23T01:06:46.234Z,5.13
2022-09-23T01:09:47.577Z,5.10
2022-09-23T01:13:05.133Z,5.11
2022-09-23T01:16:06.439Z,5.01
2022-09-23T01:19:26.749Z,4.96
2022-09-23T01:22:37.112Z,4.89
2022-09-23T01:26:00.088Z,4.94
2022-09-23T01:29:13.182Z,4.82
2022-09-23T01:32:25.169Z,4.80
2022-09-23T01:35:31.341Z,4.79
2022-09-23T01:38:51.526Z,4.82
2022-09-23T01:41:59.961Z,4.93
2022-09-23T01:45:24.831Z,4.90
2022-09-23T01:48:32.436Z,4.76
2022-09-23T01:51:35.639Z,4.74
2022-09-23T01:54:41.331Z,4.74
2022-09-23T01:57:47.214Z,4.72
2022-09-23T02:00:53.949Z,4.73
2022-09-23T02:04:09.805Z,4.69
2022-09-23T02:07:16.953Z,4.61
2022-09-23T02:10:24.046Z,4.53
2022-09-23T02:13:34.302Z,4.52
2022-09-23T02:16:36.015Z,4.51
2022-09-23T02:19:40.239Z,4.50
2022-09-23T02:22:51.181Z,4.55
2022-09-23T02:26:08.611Z,4.46
2022-09-23T02:29:24.647Z,4.47
2022-09-23T02:32:28.868Z,4.39
2022-09-23T02:35:33.307Z,4.48
2022-09-23T02:38:38.678Z,4.56
2022-09-23T02:41:50.058Z,4.59
2022-09-23T02:44:51.400Z,4.56
2022-09-23T02:47:54.465Z,4.53
2022-09-23T02:50:55.861Z,4.50
2022-09-23T02:53:57.270Z,4.45
2022-09-23T02:56:59.490Z,4.34
2022-09-23T03:00:02.189Z,4.32
2022-09-23T03:03:06.494Z,4.32
2022-09-23T03:06:43.103Z,4.25
2022-09-23T03:10:03.185Z,4.23
2022-09-23T03:13:17.159Z,4.23
2022-09-23T03:16:22.477Z,4.18
2022-09-23T03:19:25.490Z,4.17
2022-09-23T03:22:26.802Z,4.15
2022-09-23T03:25:28.271Z,4.14
2022-09-23T03:28:29.641Z,4.13
2022-09-23T03:31:31.517Z,4.16
2022-09-23T03:34:33.141Z,4.13
2022-09-23T03:37:53.435Z,4.13
2022-09-23T03:40:54.828Z,4.06
2022-09-23T03:43:58.402Z,4.11
2022-09-23T03:46:59.921Z,4.08
2022-09-23T03:50:01.313Z,4.05
2022-09-23T03:53:02.691Z,4.07
2022-09-23T03:56:04.134Z,4.04
2022-09-23T03:59:05.515Z,4.02
2022-09-23T04:02:07.352Z,4.05
2022-09-23T04:05:08.968Z,4.02
2022-09-23T04:08:10.323Z,4.07
2022-09-23T04:11:11.658Z,4.00
2022-09-23T04:14:13.488Z,3.99
2022-09-23T04:17:14.812Z,4.06
2022-09-23T04:20:17.296Z,4.14
2022-09-23T04:23:18.669Z,4.00
2022-09-23T04:26:20.042Z,3.99
2022-09-23T04:29:21.577Z,3.99
2022-09-23T04:32:24.450Z,3.95
2022-09-23T04:35:25.837Z,4.01
2022-09-23T04:38:27.259Z,4.03
2022-09-23T04:41:28.701Z,3.98
2022-09-23T04:44:30.069Z,3.96
2022-09-23T04:47:31.778Z,3.92
2022-09-23T04:50:33.809Z,3.93
2022-09-23T04:53:35.380Z,3.99
2022-09-23T04:56:36.721Z,3.98
2022-09-23T04:59:38.134Z,3.91
2022-09-23T05:02:43.397Z,3.94
2022-09-23T05:05:46.089Z,3.96
2022-09-23T05:08:48.480Z,3.99
2022-09-23T05:11:50.154Z,3.98
2022-09-23T05:14:51.553Z,4.03
2022-09-23T05:17:52.889Z,4.08
2022-09-23T05:20:55.238Z,4.14
2022-09-23T05:23:58.925Z,4.16
2022-09-23T05:27:00.879Z,4.22
2022-09-23T05:30:02.250Z,4.25
2022-09-23T05:33:03.701Z,4.31
2022-09-23T05:36:05.084Z,4.37
2022-09-23T05:39:06.932Z,4.42
2022-09-23T05:42:08.590Z,4.45
2022-09-23T05:45:10.024Z,4.58
2022-09-23T05:48:11.404Z,4.59
2022-09-23T05:51:20.136Z,4.64
2022-09-23T05:54:21.500Z,4.72
2022-09-23T05:57:22.833Z,4.80
2022-09-23T06:00:24.265Z,4.93
2022-09-23T06:03:25.683Z,4.98
2022-09-23T06:06:34.402Z,5.06
2022-09-23T06:09:36.869Z,5.18
2022-09-23T06:12:38.383Z,5.25
2022-09-23T06:15:39.824Z,5.34
2022-09-23T06:18:41.722Z,5.44
2022-09-23T06:21:43.107Z,5.59
2022-09-23T06:24:44.603Z,5.61
2022-09-23T06:27:55.345Z,5.68
2022-09-23T06:30:57.621Z,5.78
2022-09-23T06:34:09.873Z,5.91
2022-09-23T06:37:19.674Z,5.97
2022-09-23T06:40:24.808Z,6.11
2022-09-23T06:43:26.259Z,6.12
2022-09-23T06:46:27.944Z,6.23
2022-09-23T06:49:29.378Z,6.32
2022-09-23T06:52:31.029Z,6.46
2022-09-23T06:55:32.938Z,6.52
2022-09-23T06:58:34.908Z,6.57
2022-09-23T07:01:36.404Z,6.58
2022-09-23T07:04:38.001Z,6.67
2022-09-23T07:07:39.439Z,6.78
2022-09-23T07:10:40.857Z,6.84
2022-09-23T07:13:42.676Z,6.93
2022-09-23T07:16:44.036Z,7.09
2022-09-23T07:19:45.619Z,7.27
2022-09-23T07:22:50.299Z,7.39
2022-09-23T07:25:52.678Z,7.49
2022-09-23T07:28:55.155Z,7.69
2022-09-23T07:32:07.888Z,7.83
2022-09-23T07:35:12.539Z,7.89
2022-09-23T07:38:13.909Z,8.09
2022-09-23T07:41:16.907Z,8.17
2022-09-23T07:44:19.168Z,8.33
2022-09-23T07:47:20.623Z,8.47
2022-09-23T07:50:22.605Z,8.59
2022-09-23T07:53:24.118Z,8.79
2022-09-23T07:56:26.385Z,8.96
2022-09-23T07:59:27.754Z,9.24
2022-09-23T08:02:29.197Z,9.38
2022-09-23T08:05:31.866Z,9.50
2022-09-23T08:08:33.232Z,9.58
2022-09-23T08:11:35.155Z,9.65
2022-09-23T08:14:36.512Z,9.76
2022-09-23T08:17:37.931Z,9.93
2022-09-23T08:20:47.174Z,10.09
2022-09-23T08:23:49.225Z,10.25
2022-09-23T08:26:53.261Z,10.47
2022-09-23T08:29:54.674Z,10.64
2022-09-23T08:32:56.034Z,11.09
2022-09-23T08:36:00.774Z,11.41
2022-09-23T08:39:02.124Z,11.79
2022-09-23T08:42:06.421Z,11.99
2022-09-23T08:45:08.272Z,12.02
2022-09-23T08:48:13.523Z,12.30
2022-09-23T08:51:16.107Z,12.81
2022-09-23T08:54:17.750Z,13.42
2022-09-23T08:57:28.652Z,13.62
2022-09-23T09:00:34.482Z,13.85
2022-09-23T09:03:36.961Z,14.27
2022-09-23T09:06:52.484Z,14.67
2022-09-23T09:09:57.718Z,14.71
2022-09-23T09:13:17.450Z,15.13
2022-09-23T09:16:58.314Z,15.47
2022-09-23T09:20:01.257Z,15.54
2022-09-23T09:23:05.903Z,15.15
2022-09-23T09:26:09.727Z,15.51
2022-09-23T09:32:52.091Z,16.09
2022-09-23T09:36:03.893Z,16.51
2022-09-23T09:39:05.309Z,16.76
2022-09-23T09:42:07.488Z,16.76
2022-09-23T09:45:19.710Z,17.34
2022-09-23T09:48:23.601Z,17.50
2022-09-23T09:51:25.382Z,17.28
2022-09-23T09:54:27.343Z,17.33
2022-09-23T09:57:38.461Z,17.01
2022-09-23T10:00:43.288Z,16.44
2022-09-23T10:03:44.729Z,16.36
2022-09-23T10:07:02.836Z,16.26
2022-09-23T10:10:31.717Z,16.99
2022-09-23T10:13:34.469Z,18.16
2022-09-23T10:16:36.058Z,18.23
2022-09-23T10:19:37.956Z,18.59
2022-09-23T10:22:41.898Z,18.97
2022-09-23T10:25:43.326Z,19.04
2022-09-23T10:28:44.682Z,19.62
2022-09-23T10:31:46.072Z,20.42
2022-09-23T10:34:57.172Z,21.11
2022-09-23T10:38:01.679Z,21.04
2022-09-23T10:41:21.454Z,21.85
2022-09-23T10:44:50.585Z,21.30
2022-09-23T10:47:57.590Z,20.69
2022-09-23T10:50:59.700Z,20.56
2022-09-23T10:54:04.543Z,20.54
2022-09-23T10:57:29.247Z,20.95
2022-09-23T11:00:46.779Z,21.30
2022-09-23T11:04:01.265Z,21.82
2022-09-23T11:07:18.165Z,22.04
2022-09-23T11:10:44.901Z,22.03
2022-09-23T11:13:54.570Z,20.95
2022-09-23T11:17:14.903Z,20.29
2022-09-23T11:20:33.997Z,19.99
2022-09-23T11:23:54.317Z,18.66
2022-09-23T11:27:07.905Z,19.39
2022-09-23T11:30:13.081Z,18.95
2022-09-23T11:33:18.374Z,18.79
2022-09-23T11:36:25.192Z,18.62
2022-09-23T11:39:35.027Z,19.11
2022-09-23T11:42:38.407Z,19.42
2022-09-23T11:45:45.864Z,19.11
2022-09-23T11:48:56.348Z,19.68
2022-09-23T11:52:20.600Z,19.83
2022-09-23T11:55:27.096Z,20.00
2022-09-23T11:58:30.007Z,19.57
2022-09-23T12:01:37.605Z,19.43
2022-09-23T12:04:52.165Z,19.85
2022-09-23T12:07:59.671Z,19.83
2022-09-23T12:11:01.483Z,19.74
2022-09-23T12:14:03.116Z,19.56
2022-09-23T12:17:14.792Z,18.98
2022-09-23T12:20:28.504Z,19.54
2022-09-23T12:23:32.937Z,20.61
2022-09-23T12:26:34.261Z,20.38
2022-09-23T12:29:35.611Z,19.76
2022-09-23T12:32:36.990Z,20.10
2022-09-23T12:35:41.922Z,20.55
2022-09-23T12:38:49.278Z,20.40
2022-09-23T12:41:53.941Z,19.99
2022-09-23T12:44:55.322Z,20.29
2022-09-23T12:47:56.706Z,20.42
2022-09-23T12:51:07.752Z,20.80
2022-09-23T12:54:21.175Z,20.19
2022-09-23T12:57:31.846Z,19.58
2022-09-23T13:00:34.413Z,19.23
2022-09-23T13:03:54.614Z,18.86
2022-09-23T13:07:04.623Z,18.61
2022-09-23T13:10:08.018Z,18.66
2022-09-23T13:13:14.127Z,18.85
2022-09-23T13:16:24.539Z,19.48
2022-09-23T13:19:25.933Z,19.06
2022-09-23T13:22:41.449Z,19.47
2022-09-23T13:25:43.149Z,18.67
2022-09-23T13:29:04.804Z,19.17
2022-09-23T13:32:06.345Z,18.56
2022-09-23T13:35:14.087Z,18.52
2022-09-23T13:38:20.379Z,18.52
2022-09-23T13:41:22.532Z,18.22
2022-09-23T13:44:23.986Z,18.27
2022-09-23T13:47:25.921Z,18.31
2022-09-23T13:50:30.473Z,18.09
2022-09-23T13:53:34.309Z,17.92
2022-09-23T13:56:36.608Z,18.00
2022-09-23T13:59:38.309Z,18.03
2022-09-23T14:02:43.137Z,18.18
2022-09-23T14:05:44.548Z,18.36
2022-09-23T14:08:47.286Z,18.11
2022-09-23T14:11:48.824Z,18.16
2022-09-23T14:14:51.019Z,18.09
2022-09-23T14:17:53.279Z,17.97
2022-09-23T14:20:54.674Z,17.92
2022-09-23T14:23:56.120Z,17.92
2022-09-23T14:27:01.566Z,17.70
2022-09-23T14:30:02.936Z,17.55
2022-09-23T14:33:08.814Z,17.44
2022-09-23T14:36:34.291Z,17.52
2022-09-23T14:39:35.944Z,17.50
2022-09-23T14:42:39.013Z,17.30
2022-09-23T14:45:40.449Z,17.33
2022-09-23T14:48:41.866Z,17.37
2022-09-23T14:51:50.191Z,17.37
2022-09-23T14:54:51.563Z,17.28
2022-09-23T14:57:59.803Z,17.29
2022-09-23T15:01:01.244Z,17.24
2022-09-23T15:04:28.067Z,17.13
2022-09-23T15:07:29.420Z,17.02
2022-09-23T15:10:31.782Z,16.96
2022-09-23T15:13:33.973Z,16.93
2022-09-23T15:16:35.408Z,16.78
2022-09-23T15:19:37.497Z,16.75
2022-09-23T15:22:42.571Z,16.72
2022-09-23T15:25:43.912Z,16.67
2022-09-23T15:28:45.356Z,16.72
2022-09-23T15:31:46.807Z,16.73
2022-09-23T15:34:48.764Z,16.67
2022-09-23T15:37:50.145Z,16.65
2022-09-23T15:40:51.720Z,16.64
2022-09-23T15:43:53.178Z,16.47
2022-09-23T15:46:55.865Z,16.44
2022-09-23T15:49:57.830Z,16.42
2022-09-23T15:52:59.493Z,16.35
2022-09-23T15:56:00.913Z,16.34
2022-09-23T15:59:02.314Z,16.30
2022-09-23T16:02:05.718Z,16.34
2022-09-23T16:05:07.785Z,16.30
2022-09-23T16:08:09.678Z,16.25
2022-09-23T16:11:20.764Z,16.21
2022-09-23T16:14:22.436Z,16.12
2022-09-23T16:17:25.068Z,15.98
2022-09-23T16:20:29.463Z,15.83
2022-09-23T16:23:39.922Z,15.74
2022-09-23T16:26:43.172Z,15.69
2022-09-23T16:29:44.552Z,15.57
2022-09-23T16:32:46.052Z,15.45
2022-09-23T16:35:47.390Z,15.32
2022-09-23T16:38:48.931Z,15.20
2022-09-23T16:41:50.267Z,15.13
2022-09-23T16:44:51.631Z,15.02
2022-09-23T16:47:53.072Z,14.93
2022-09-23T16:50:54.606Z,14.70
2022-09-23T16:53:56.425Z,14.53
2022-09-23T16:56:59.087Z,14.47
2022-09-23T17:00:18.901Z,14.36
2022-09-23T17:03:38.669Z,14.22
2022-09-23T17:06:43.553Z,14.04
2022-09-23T17:09:44.960Z,13.90
2022-09-23T17:12:46.316Z,13.84
2022-09-23T17:15:47.686Z,13.72
2022-09-23T17:18:49.033Z,13.61
2022-09-23T17:21:50.478Z,13.58
2022-09-23T17:24:52.467Z,13.64
2022-09-23T17:27:55.605Z,13.61
2022-09-23T17:30:58.078Z,13.60
2022-09-23T17:33:59.543Z,13.43
2022-09-23T17:37:02.470Z,13.31
2022-09-23T17:40:03.989Z,13.22
2022-09-23T17:43:05.366Z,13.13
2022-09-23T17:46:10.806Z,13.13
2022-09-23T17:49:12.302Z,13.07
2022-09-23T17:52:13.662Z,12.98
2022-09-23T17:55:16.675Z,12.84
2022-09-23T17:58:18.910Z,12.77
2022-09-23T18:01:21.852Z,12.77
2022-09-23T18:04:23.307Z,12.75
2022-09-23T18:07:24.789Z,12.69
2022-09-23T18:10:26.759Z,12.63
2022-09-23T18:13:28.125Z,12.60
2022-09-23T18:16:30.413Z,12.58
2022-09-23T18:19:31.815Z,12.45
2022-09-23T18:22:33.157Z,12.35
2022-09-23T18:25:39.615Z,12.26
2022-09-23T18:28:41.166Z,12.22
2022-09-23T18:31:44.143Z,12.14
2022-09-23T18:34:45.660Z,12.05
2022-09-23T18:37:46.992Z,11.99
2022-09-23T18:40:55.401Z,11.90
2022-09-23T18:43:57.272Z,11.76
2022-09-23T18:46:58.629Z,11.73
2022-09-23T18:50:18.846Z,11.72
2022-09-23T18:53:20.179Z,11.67
2022-09-23T18:56:21.582Z,11.60
2022-09-23T18:59:26.225Z,11.58
2022-09-23T19:02:27.629Z,11.60
2022-09-23T19:05:29.078Z,11.61
2022-09-23T19:08:30.447Z,11.49
2022-09-23T19:11:32.216Z,11.32
2022-09-23T19:14:33.807Z,11.26
2022-09-23T19:17:35.198Z,11.22
2022-09-23T19:20:36.539Z,11.24
2022-09-23T19:23:38.090Z,11.23
2022-09-23T19:26:39.855Z,11.22
2022-09-23T19:29:41.703Z,11.18
2022-09-23T19:32:44.222Z,11.20
2022-09-23T19:35:49.127Z,11.18
2022-09-23T19:38:52.653Z,11.23
2022-09-23T19:41:56.709Z,11.22
2022-09-23T19:44:58.093Z,11.24
2022-09-23T19:48:00.841Z,11.14
2022-09-23T19:51:02.665Z,11.02
2022-09-23T19:54:04.603Z,11.00
2022-09-23T19:57:06.419Z,10.94
2022-09-23T20:00:08.074Z,10.91
2022-09-23T20:03:09.490Z,10.87
2022-09-23T20:06:10.857Z,10.81
2022-09-23T20:09:12.280Z,10.66
2022-09-23T20:12:14.187Z,10.60
2022-09-23T20:15:16.281Z,10.55
2022-09-23T20:18:17.646Z,10.60
2022-09-23T20:21:19.004Z,10.64
2022-09-23T20:24:20.363Z,10.63
2022-09-23T20:27:22.122Z,10.65
2022-09-23T20:30:23.476Z,10.52
2022-09-23T20:33:24.837Z,10.49
2022-09-23T20:36:26.367Z,10.53
2022-09-23T20:39:28.183Z,10.48
2022-09-23T20:42:29.541Z,10.46
2022-09-23T20:45:30.890Z,10.43
2022-09-23T20:48:32.247Z,10.36
2022-09-23T20:51:33.662Z,10.36
2022-09-23T20:54:35.713Z,10.26
2022-09-23T20:57:37.135Z,10.21
2022-09-23T21:00:38.513Z,10.23
2022-09-23T21:03:40.585Z,10.28
2022-09-23T21:06:41.951Z,10.24
2022-09-23T21:09:43.341Z,10.11
2022-09-23T21:12:50.420Z,10.02
2022-09-23T21:15:51.877Z,9.99
2022-09-23T21:18:53.285Z,9.94
2022-09-23T21:21:54.992Z,9.87
2022-09-23T21:28:18.459Z,9.97
2022-09-23T21:31:23.566Z,9.88
2022-09-23T21:34:28.148Z,9.83
2022-09-23T21:37:29.517Z,9.75
2022-09-23T21:40:49.692Z,9.70
2022-09-23T21:43:51.125Z,9.75
2022-09-23T21:46:54.257Z,9.69
2022-09-23T21:49:55.886Z,9.62
2022-09-23T21:52:57.295Z,9.59
2022-09-23T21:56:08.821Z,9.52
2022-09-23T21:59:10.392Z,9.59
2022-09-23T22:02:11.751Z,9.57
2022-09-23T22:05:13.134Z,9.63
2022-09-23T22:08:14.484Z,9.63
2022-09-23T22:11:35.494Z,9.61
2022-09-23T22:14:37.016Z,9.64
2022-09-23T22:17:39.115Z,9.67
2022-09-23T22:20:41.320Z,9.69
2022-09-23T22:23:42.707Z,9.70
2022-09-23T22:26:44.220Z,9.59
2022-09-23T22:30:04.469Z,9.53
2022-09-23T22:33:09.077Z,9.50
2022-09-23T22:36:12.771Z,9.45
2022-09-23T22:39:14.135Z,9.45
2022-09-23T22:42:16.097Z,9.38
2022-09-23T22:45:17.502Z,9.37
2022-09-23T22:48:19.941Z,9.38
2022-09-23T22:51:22.243Z,9.34
2022-09-23T22:54:23.659Z,9.33
2022-09-23T22:57:25.014Z,9.28
2022-09-23T23:00:27.956Z,9.27
2022-09-23T23:03:30.517Z,9.24
2022-09-23T23:06:36.529Z,9.31
2022-09-23T23:09:37.929Z,9.35
2022-09-23T23:12:40.089Z,9.36
2022-09-23T23:15:41.624Z,9.27
2022-09-23T23:18:43.235Z,9.29
2022-09-23T23:21:44.875Z,9.21
2022-09-23T23:24:46.376Z,9.17
2022-09-23T23:27:47.755Z,9.13
2022-09-23T23:30:49.095Z,9.14
2022-09-23T23:33:50.491Z,9.12
2022-09-23T23:36:54.591Z,9.11
2022-09-23T23:39:56.397Z,9.12
2022-09-23T23:42:58.647Z,9.09
2022-09-23T23:46:01.423Z,9.06
2022-09-23T23:49:02.868Z,9.04
2022-09-23T23:52:04.199Z,9.01
2022-09-23T23:55:05.639Z,8.99
2022-09-23T23:58:07.006Z,8.92
